Airfield :
LOGIN :

Register | Disclaimer

   EN    FR    IT 

 










Legend :    VFR   Marginal VFR   IFR   Intensive IFR   Very Intensive IFR
Visi :
Ceiling :
>= 8 km
>= 3000ft
5 to 8 km
1000 to 3000 ft
1500m to 5 km
500 to 1000 ft
800 to 1500m
200 to 500 ft
< 800m
< 200 ft
Symbols :   Thunderstorms  Fog  Heavy snow  Heavy precipitations  Wind > 20 kt
SIGMETs :     Misc.  Thunderstorms  Icing  Turbulence  Mountain Waves  Volcanic Ashes






- Airport Elevation : 433 ft


LFOC - Chateaudun

CURRENT METAR :
  • 041600Z AUTO 11010KT CAVOK 18/02 Q1018

EXPIRED METARs :
  • 041530Z AUTO 10009KT 070V130 CAVOK 18/01 Q1018
  • 041500Z AUTO 09010KT 060V120 CAVOK 17/01 Q1018
  • 041430Z AUTO 11011KT 080V160 CAVOK 17/01 Q1019
  • 041400Z AUTO 13010KT 080V160 CAVOK 18/02 Q1019
  • 041330Z AUTO 10009KT 060V140 CAVOK 17/01 Q1019

Expired Forecast.



MET'MAP, your aeronautical weather chart ! - Copyright ORBIFLY December 2007 - Disclaimer

ORBIFLY MET'MAP TEAM :

Programming & Development : Alexandra Zaïnal
Concept & original design : Baudouin d'Aumeries
Assistance for programming : Marc-Olivier Méhu
Technical & hardware support : Manuel Goepfert

Contact : metmap@orbifly.com




SOURCES & CREDITS :

   NOAA